sensor_id;sensor_type;location;lat;lon;timestamp;temperature;humidity
67196;DHT22;54122;53.538;49.366;2023-03-24T00:00:00;3.30;91.10
67196;DHT22;54122;53.538;49.366;2023-03-24T00:02:28;3.40;91.10
67196;DHT22;54122;53.538;49.366;2023-03-24T00:04:55;3.40;91.00
67196;DHT22;54122;53.538;49.366;2023-03-24T00:07:24;3.50;91.00
67196;DHT22;54122;53.538;49.366;2023-03-24T00:09:50;3.50;91.00
67196;DHT22;54122;53.538;49.366;2023-03-24T00:12:19;3.50;91.00
67196;DHT22;54122;53.538;49.366;2023-03-24T00:14:45;3.40;90.80
67196;DHT22;54122;53.538;49.366;2023-03-24T00:17:12;3.40;90.90
67196;DHT22;54122;53.538;49.366;2023-03-24T00:19:45;3.30;90.90
67196;DHT22;54122;53.538;49.366;2023-03-24T00:22:12;3.30;91.30
67196;DHT22;54122;53.538;49.366;2023-03-24T00:24:40;3.40;91.50
67196;DHT22;54122;53.538;49.366;2023-03-24T00:27:07;3.50;91.40
67196;DHT22;54122;53.538;49.366;2023-03-24T00:29:34;3.50;91.50
67196;DHT22;54122;53.538;49.366;2023-03-24T00:32:01;3.60;91.60
67196;DHT22;54122;53.538;49.366;2023-03-24T00:34:27;3.70;91.50
67196;DHT22;54122;53.538;49.366;2023-03-24T00:36:54;3.70;91.40
67196;DHT22;54122;53.538;49.366;2023-03-24T00:39:20;3.80;91.50
67196;DHT22;54122;53.538;49.366;2023-03-24T00:41:47;3.80;91.50
67196;DHT22;54122;53.538;49.366;2023-03-24T00:44:15;3.80;91.50
67196;DHT22;54122;53.538;49.366;2023-03-24T00:46:46;3.90;91.60
67196;DHT22;54122;53.538;49.366;2023-03-24T00:49:22;3.90;91.50
67196;DHT22;54122;53.538;49.366;2023-03-24T00:52:12;3.90;91.50
67196;DHT22;54122;53.538;49.366;2023-03-24T00:54:39;3.80;91.30
67196;DHT22;54122;53.538;49.366;2023-03-24T00:57:07;3.80;91.40
67196;DHT22;54122;53.538;49.366;2023-03-24T00:59:34;3.70;91.40
67196;DHT22;54122;53.538;49.366;2023-03-24T01:02:11;3.60;91.50
67196;DHT22;54122;53.538;49.366;2023-03-24T01:04:38;3.60;91.50
67196;DHT22;54122;53.538;49.366;2023-03-24T01:07:06;3.60;91.70
67196;DHT22;54122;53.538;49.366;2023-03-24T01:09:34;3.60;91.90
67196;DHT22;54122;53.538;49.366;2023-03-24T01:12:02;3.60;91.80
67196;DHT22;54122;53.538;49.366;2023-03-24T01:14:30;3.60;91.80
67196;DHT22;54122;53.538;49.366;2023-03-24T01:16:57;3.60;91.90
67196;DHT22;54122;53.538;49.366;2023-03-24T01:19:25;3.50;91.90
67196;DHT22;54122;53.538;49.366;2023-03-24T01:21:51;3.50;91.90
67196;DHT22;54122;53.538;49.366;2023-03-24T01:24:22;3.40;92.00
67196;DHT22;54122;53.538;49.366;2023-03-24T01:26:51;3.40;92.00
67196;DHT22;54122;53.538;49.366;2023-03-24T01:29:17;3.40;92.10
67196;DHT22;54122;53.538;49.366;2023-03-24T01:31:44;3.30;92.20
67196;DHT22;54122;53.538;49.366;2023-03-24T01:34:10;3.30;92.40
67196;DHT22;54122;53.538;49.366;2023-03-24T01:36:37;3.40;92.50
67196;DHT22;54122;53.538;49.366;2023-03-24T01:39:03;3.40;92.50
67196;DHT22;54122;53.538;49.366;2023-03-24T01:41:37;3.40;92.60
67196;DHT22;54122;53.538;49.366;2023-03-24T01:44:44;3.40;92.50
67196;DHT22;54122;53.538;49.366;2023-03-24T01:47:11;3.50;92.70
67196;DHT22;54122;53.538;49.366;2023-03-24T01:49:51;3.50;92.60
67196;DHT22;54122;53.538;49.366;2023-03-24T01:52:28;3.60;92.70
67196;DHT22;54122;53.538;49.366;2023-03-24T01:55:13;3.70;92.80
67196;DHT22;54122;53.538;49.366;2023-03-24T01:57:49;3.70;92.60
67196;DHT22;54122;53.538;49.366;2023-03-24T02:00:19;3.70;92.60
67196;DHT22;54122;53.538;49.366;2023-03-24T02:03:00;3.70;92.50
67196;DHT22;54122;53.538;49.366;2023-03-24T02:05:31;3.70;92.50
67196;DHT22;54122;53.538;49.366;2023-03-24T02:08:24;3.60;92.50
67196;DHT22;54122;53.538;49.366;2023-03-24T02:10:53;3.60;92.60
67196;DHT22;54122;53.538;49.366;2023-03-24T02:13:21;3.60;92.70
67196;DHT22;54122;53.538;49.366;2023-03-24T02:18:44;3.70;92.80
67196;DHT22;54122;53.538;49.366;2023-03-24T02:21:56;3.70;92.70
67196;DHT22;54122;53.538;49.366;2023-03-24T02:27:05;3.60;92.80
67196;DHT22;54122;53.538;49.366;2023-03-24T02:41:02;3.80;92.60
67196;DHT22;54122;53.538;49.366;2023-03-24T02:43:52;3.90;92.60
67196;DHT22;54122;53.538;49.366;2023-03-24T02:46:32;3.90;92.60
67196;DHT22;54122;53.538;49.366;2023-03-24T02:49:30;3.90;92.60
67196;DHT22;54122;53.538;49.366;2023-03-24T02:52:08;3.90;92.50
67196;DHT22;54122;53.538;49.366;2023-03-24T02:57:47;4.00;92.30
67196;DHT22;54122;53.538;49.366;2023-03-24T03:03:20;4.00;92.20
67196;DHT22;54122;53.538;49.366;2023-03-24T03:05:56;4.10;92.20
67196;DHT22;54122;53.538;49.366;2023-03-24T03:08:28;4.10;92.00
67196;DHT22;54122;53.538;49.366;2023-03-24T03:10:56;4.20;91.90
67196;DHT22;54122;53.538;49.366;2023-03-24T03:13:35;4.20;91.80
67196;DHT22;54122;53.538;49.366;2023-03-24T03:16:23;4.30;91.60
67196;DHT22;54122;53.538;49.366;2023-03-24T03:19:03;4.40;92.00
67196;DHT22;54122;53.538;49.366;2023-03-24T03:21:37;5.00;92.20
67196;DHT22;54122;53.538;49.366;2023-03-24T03:24:14;5.80;90.70
67196;DHT22;54122;53.538;49.366;2023-03-24T03:26:43;6.50;87.80
67196;DHT22;54122;53.538;49.366;2023-03-24T03:29:16;7.10;85.00
67196;DHT22;54122;53.538;49.366;2023-03-24T03:31:58;7.60;82.30
67196;DHT22;54122;53.538;49.366;2023-03-24T03:34:48;8.10;79.30
67196;DHT22;54122;53.538;49.366;2023-03-24T03:37:51;8.60;77.10
67196;DHT22;54122;53.538;49.366;2023-03-24T03:40:23;8.90;74.50
67196;DHT22;54122;53.538;49.366;2023-03-24T03:42:51;9.00;73.50
67196;DHT22;54122;53.538;49.366;2023-03-24T03:45:17;9.30;72.30
67196;DHT22;54122;53.538;49.366;2023-03-24T03:47:44;9.60;71.30
67196;DHT22;54122;53.538;49.366;2023-03-24T03:50:12;10.10;69.90
67196;DHT22;54122;53.538;49.366;2023-03-24T03:52:40;10.40;67.90
67196;DHT22;54122;53.538;49.366;2023-03-24T03:55:07;10.60;66.90
67196;DHT22;54122;53.538;49.366;2023-03-24T03:57:34;10.80;64.90
67196;DHT22;54122;53.538;49.366;2023-03-24T04:00:02;11.00;64.40
67196;DHT22;54122;53.538;49.366;2023-03-24T04:13:57;12.50;58.90
67196;DHT22;54122;53.538;49.366;2023-03-24T04:19:39;13.20;56.00
67196;DHT22;54122;53.538;49.366;2023-03-24T04:30:37;14.10;51.80
67196;DHT22;54122;53.538;49.366;2023-03-24T04:33:17;14.20;51.40
67196;DHT22;54122;53.538;49.366;2023-03-24T04:35:56;14.30;50.80
67196;DHT22;54122;53.538;49.366;2023-03-24T04:38:27;14.70;50.00
67196;DHT22;54122;53.538;49.366;2023-03-24T04:40:55;15.00;49.00
67196;DHT22;54122;53.538;49.366;2023-03-24T04:43:26;15.00;48.30
67196;DHT22;54122;53.538;49.366;2023-03-24T04:45:54;15.20;48.10
67196;DHT22;54122;53.538;49.366;2023-03-24T04:48:23;15.40;47.40
67196;DHT22;54122;53.538;49.366;2023-03-24T04:50:59;15.50;46.60
67196;DHT22;54122;53.538;49.366;2023-03-24T04:53:26;15.50;46.20
67196;DHT22;54122;53.538;49.366;2023-03-24T04:56:06;15.60;46.60
67196;DHT22;54122;53.538;49.366;2023-03-24T04:58:35;16.10;45.70
67196;DHT22;54122;53.538;49.366;2023-03-24T05:01:02;16.40;44.90
67196;DHT22;54122;53.538;49.366;2023-03-24T05:03:28;16.80;43.70
67196;DHT22;54122;53.538;49.366;2023-03-24T05:05:55;17.30;43.20
67196;DHT22;54122;53.538;49.366;2023-03-24T05:08:21;17.50;41.90
67196;DHT22;54122;53.538;49.366;2023-03-24T05:10:48;17.50;41.20
67196;DHT22;54122;53.538;49.366;2023-03-24T05:13:14;17.40;41.30
67196;DHT22;54122;53.538;49.366;2023-03-24T05:15:41;17.20;41.10
67196;DHT22;54122;53.538;49.366;2023-03-24T05:18:08;17.10;41.50
67196;DHT22;54122;53.538;49.366;2023-03-24T05:20:34;17.30;41.40
67196;DHT22;54122;53.538;49.366;2023-03-24T05:23:01;17.30;40.70
67196;DHT22;54122;53.538;49.366;2023-03-24T05:25:27;17.30;40.50
67196;DHT22;54122;53.538;49.366;2023-03-24T05:27:54;17.20;40.70
67196;DHT22;54122;53.538;49.366;2023-03-24T05:30:21;17.30;40.70
67196;DHT22;54122;53.538;49.366;2023-03-24T05:32:47;17.60;40.60
67196;DHT22;54122;53.538;49.366;2023-03-24T05:35:14;18.00;39.90
67196;DHT22;54122;53.538;49.366;2023-03-24T05:37:41;18.40;39.10
67196;DHT22;54122;53.538;49.366;2023-03-24T05:40:08;18.60;38.20
67196;DHT22;54122;53.538;49.366;2023-03-24T05:42:34;18.60;38.20
67196;DHT22;54122;53.538;49.366;2023-03-24T05:45:01;18.60;37.80
67196;DHT22;54122;53.538;49.366;2023-03-24T05:47:27;18.50;38.00
67196;DHT22;54122;53.538;49.366;2023-03-24T05:49:54;18.60;37.90
67196;DHT22;54122;53.538;49.366;2023-03-24T05:52:20;18.70;37.80
67196;DHT22;54122;53.538;49.366;2023-03-24T05:54:47;19.00;37.40
67196;DHT22;54122;53.538;49.366;2023-03-24T05:57:18;19.10;38.20
67196;DHT22;54122;53.538;49.366;2023-03-24T05:59:45;19.20;36.70
67196;DHT22;54122;53.538;49.366;2023-03-24T06:02:11;19.10;36.60
67196;DHT22;54122;53.538;49.366;2023-03-24T06:04:42;19.00;36.80
67196;DHT22;54122;53.538;49.366;2023-03-24T06:07:14;19.10;36.90
67196;DHT22;54122;53.538;49.366;2023-03-24T06:09:41;19.30;36.10
67196;DHT22;54122;53.538;49.366;2023-03-24T06:12:12;19.20;36.10
67196;DHT22;54122;53.538;49.366;2023-03-24T06:14:39;19.10;36.00
67196;DHT22;54122;53.538;49.366;2023-03-24T06:17:06;18.70;36.40
67196;DHT22;54122;53.538;49.366;2023-03-24T06:19:33;18.60;37.20
67196;DHT22;54122;53.538;49.366;2023-03-24T06:22:00;18.60;37.30
67196;DHT22;54122;53.538;49.366;2023-03-24T06:24:28;18.60;36.90
67196;DHT22;54122;53.538;49.366;2023-03-24T06:26:55;18.60;37.00
67196;DHT22;54122;53.538;49.366;2023-03-24T06:29:28;18.90;36.60
67196;DHT22;54122;53.538;49.366;2023-03-24T06:31:56;18.90;36.00
67196;DHT22;54122;53.538;49.366;2023-03-24T06:34:22;18.60;36.00
67196;DHT22;54122;53.538;49.366;2023-03-24T06:36:50;18.40;36.60
67196;DHT22;54122;53.538;49.366;2023-03-24T06:39:17;18.30;37.00
67196;DHT22;54122;53.538;49.366;2023-03-24T06:41:44;18.30;37.10
67196;DHT22;54122;53.538;49.366;2023-03-24T06:44:10;18.40;36.80
67196;DHT22;54122;53.538;49.366;2023-03-24T06:46:37;18.50;36.80
67196;DHT22;54122;53.538;49.366;2023-03-24T06:49:03;18.60;36.10
67196;DHT22;54122;53.538;49.366;2023-03-24T06:51:30;18.50;36.20
67196;DHT22;54122;53.538;49.366;2023-03-24T06:53:56;18.50;36.50
67196;DHT22;54122;53.538;49.366;2023-03-24T06:56:23;18.80;36.30
67196;DHT22;54122;53.538;49.366;2023-03-24T06:58:49;18.70;36.10
67196;DHT22;54122;53.538;49.366;2023-03-24T07:01:16;18.80;36.10
67196;DHT22;54122;53.538;49.366;2023-03-24T07:03:43;18.90;35.60
67196;DHT22;54122;53.538;49.366;2023-03-24T07:06:10;19.00;35.50
67196;DHT22;54122;53.538;49.366;2023-03-24T07:08:37;19.30;35.10
67196;DHT22;54122;53.538;49.366;2023-03-24T07:11:04;19.40;34.50
67196;DHT22;54122;53.538;49.366;2023-03-24T07:13:32;19.20;34.60
67196;DHT22;54122;53.538;49.366;2023-03-24T07:15:58;19.30;35.30
67196;DHT22;54122;53.538;49.366;2023-03-24T07:18:25;19.50;34.40
67196;DHT22;54122;53.538;49.366;2023-03-24T07:20:51;19.30;34.20
67196;DHT22;54122;53.538;49.366;2023-03-24T07:23:18;19.20;34.80
67196;DHT22;54122;53.538;49.366;2023-03-24T07:25:44;19.00;34.90
67196;DHT22;54122;53.538;49.366;2023-03-24T07:28:11;18.80;35.50
67196;DHT22;54122;53.538;49.366;2023-03-24T07:30:38;18.60;36.00
67196;DHT22;54122;53.538;49.366;2023-03-24T07:33:06;18.60;36.40
67196;DHT22;54122;53.538;49.366;2023-03-24T07:35:32;18.90;35.90
67196;DHT22;54122;53.538;49.366;2023-03-24T07:38:00;19.10;35.70
67196;DHT22;54122;53.538;49.366;2023-03-24T07:40:27;18.90;35.60
67196;DHT22;54122;53.538;49.366;2023-03-24T07:42:59;18.80;36.00
67196;DHT22;54122;53.538;49.366;2023-03-24T07:45:26;18.90;36.10
67196;DHT22;54122;53.538;49.366;2023-03-24T07:47:53;19.00;36.10
67196;DHT22;54122;53.538;49.366;2023-03-24T07:50:22;19.10;35.80
67196;DHT22;54122;53.538;49.366;2023-03-24T07:52:49;19.00;36.20
67196;DHT22;54122;53.538;49.366;2023-03-24T07:55:16;19.30;36.10
67196;DHT22;54122;53.538;49.366;2023-03-24T07:57:45;19.30;35.90
67196;DHT22;54122;53.538;49.366;2023-03-24T08:00:12;19.50;35.70
67196;DHT22;54122;53.538;49.366;2023-03-24T08:02:47;19.60;35.40
67196;DHT22;54122;53.538;49.366;2023-03-24T08:05:14;19.50;35.60
67196;DHT22;54122;53.538;49.366;2023-03-24T08:07:46;19.40;35.80
67196;DHT22;54122;53.538;49.366;2023-03-24T08:10:28;19.30;36.20
67196;DHT22;54122;53.538;49.366;2023-03-24T08:12:56;19.30;36.30
67196;DHT22;54122;53.538;49.366;2023-03-24T08:15:23;19.50;36.20
67196;DHT22;54122;53.538;49.366;2023-03-24T08:17:50;19.60;35.70
67196;DHT22;54122;53.538;49.366;2023-03-24T08:20:17;19.40;35.80
67196;DHT22;54122;53.538;49.366;2023-03-24T08:22:46;19.20;36.50
67196;DHT22;54122;53.538;49.366;2023-03-24T08:25:16;19.20;36.70
67196;DHT22;54122;53.538;49.366;2023-03-24T08:27:43;19.30;36.90
67196;DHT22;54122;53.538;49.366;2023-03-24T08:30:13;19.30;36.60
67196;DHT22;54122;53.538;49.366;2023-03-24T08:32:50;19.00;36.70
67196;DHT22;54122;53.538;49.366;2023-03-24T08:35:22;18.80;37.30
67196;DHT22;54122;53.538;49.366;2023-03-24T08:37:49;18.60;37.90
67196;DHT22;54122;53.538;49.366;2023-03-24T08:40:18;18.40;38.40
67196;DHT22;54122;53.538;49.366;2023-03-24T08:42:52;18.60;38.50
67196;DHT22;54122;53.538;49.366;2023-03-24T08:45:20;19.00;37.90
67196;DHT22;54122;53.538;49.366;2023-03-24T08:47:48;19.50;36.90
67196;DHT22;54122;53.538;49.366;2023-03-24T08:50:15;19.30;36.60
67196;DHT22;54122;53.538;49.366;2023-03-24T08:52:41;19.30;36.80
67196;DHT22;54122;53.538;49.366;2023-03-24T08:55:08;19.20;37.60
67196;DHT22;54122;53.538;49.366;2023-03-24T08:57:35;19.50;37.30
67196;DHT22;54122;53.538;49.366;2023-03-24T09:00:02;19.60;36.40
67196;DHT22;54122;53.538;49.366;2023-03-24T09:02:36;19.70;36.40
67196;DHT22;54122;53.538;49.366;2023-03-24T09:05:02;19.80;36.20
67196;DHT22;54122;53.538;49.366;2023-03-24T09:07:29;20.00;36.00
67196;DHT22;54122;53.538;49.366;2023-03-24T09:09:55;20.10;35.50
67196;DHT22;54122;53.538;49.366;2023-03-24T09:12:22;20.10;35.70
67196;DHT22;54122;53.538;49.366;2023-03-24T09:14:48;20.20;35.50
67196;DHT22;54122;53.538;49.366;2023-03-24T09:17:16;20.10;35.40
67196;DHT22;54122;53.538;49.366;2023-03-24T09:19:43;19.80;35.90
67196;DHT22;54122;53.538;49.366;2023-03-24T09:22:10;19.40;36.50
67196;DHT22;54122;53.538;49.366;2023-03-24T09:24:37;19.20;37.20
67196;DHT22;54122;53.538;49.366;2023-03-24T09:27:04;19.10;37.60
67196;DHT22;54122;53.538;49.366;2023-03-24T09:29:30;19.00;37.70
67196;DHT22;54122;53.538;49.366;2023-03-24T09:31:56;18.90;38.20
67196;DHT22;54122;53.538;49.366;2023-03-24T09:34:23;18.80;38.30
67196;DHT22;54122;53.538;49.366;2023-03-24T09:36:50;18.60;38.80
67196;DHT22;54122;53.538;49.366;2023-03-24T09:39:17;18.50;39.40
67196;DHT22;54122;53.538;49.366;2023-03-24T09:41:44;18.20;39.90
67196;DHT22;54122;53.538;49.366;2023-03-24T09:46:56;17.60;41.70
67196;DHT22;54122;53.538;49.366;2023-03-24T09:49:31;17.50;42.30
67196;DHT22;54122;53.538;49.366;2023-03-24T09:52:05;17.60;42.30
67196;DHT22;54122;53.538;49.366;2023-03-24T09:54:51;17.40;42.70
67196;DHT22;54122;53.538;49.366;2023-03-24T09:57:38;17.20;43.30
67196;DHT22;54122;53.538;49.366;2023-03-24T10:00:21;16.90;44.30
67196;DHT22;54122;53.538;49.366;2023-03-24T10:02:49;17.00;44.70
67196;DHT22;54122;53.538;49.366;2023-03-24T10:05:59;16.90;44.80
67196;DHT22;54122;53.538;49.366;2023-03-24T10:09:05;16.90;45.00
67196;DHT22;54122;53.538;49.366;2023-03-24T10:11:54;16.90;45.10
67196;DHT22;54122;53.538;49.366;2023-03-24T10:23:16;16.30;46.40
67196;DHT22;54122;53.538;49.366;2023-03-24T10:28:31;16.10;46.90
67196;DHT22;54122;53.538;49.366;2023-03-24T10:31:03;16.00;47.00
67196;DHT22;54122;53.538;49.366;2023-03-24T10:33:30;15.80;47.50
67196;DHT22;54122;53.538;49.366;2023-03-24T10:36:24;15.80;48.00
67196;DHT22;54122;53.538;49.366;2023-03-24T10:38:51;15.90;47.90
67196;DHT22;54122;53.538;49.366;2023-03-24T10:41:19;15.90;47.70
67196;DHT22;54122;53.538;49.366;2023-03-24T10:43:48;15.90;47.60
67196;DHT22;54122;53.538;49.366;2023-03-24T10:46:23;15.80;47.70
67196;DHT22;54122;53.538;49.366;2023-03-24T10:48:52;15.80;47.70
67196;DHT22;54122;53.538;49.366;2023-03-24T10:51:24;15.70;47.80
67196;DHT22;54122;53.538;49.366;2023-03-24T10:54:12;15.60;48.00
67196;DHT22;54122;53.538;49.366;2023-03-24T10:56:43;15.60;48.40
67196;DHT22;54122;53.538;49.366;2023-03-24T10:59:26;15.60;48.60
67196;DHT22;54122;53.538;49.366;2023-03-24T11:04:44;15.80;48.40
67196;DHT22;54122;53.538;49.366;2023-03-24T11:07:17;15.80;47.90
67196;DHT22;54122;53.538;49.366;2023-03-24T11:12:32;15.80;48.00
67196;DHT22;54122;53.538;49.366;2023-03-24T11:15:17;15.70;47.80
67196;DHT22;54122;53.538;49.366;2023-03-24T11:17:55;15.60;48.00
67196;DHT22;54122;53.538;49.366;2023-03-24T11:20:37;15.60;48.00
67196;DHT22;54122;53.538;49.366;2023-03-24T11:25:36;15.60;48.00
67196;DHT22;54122;53.538;49.366;2023-03-24T11:28:14;15.60;48.20
67196;DHT22;54122;53.538;49.366;2023-03-24T11:30:48;15.70;48.00
67196;DHT22;54122;53.538;49.366;2023-03-24T11:33:29;15.60;48.00
67196;DHT22;54122;53.538;49.366;2023-03-24T11:36:00;15.50;47.90
67196;DHT22;54122;53.538;49.366;2023-03-24T11:38:31;15.50;48.30
67196;DHT22;54122;53.538;49.366;2023-03-24T11:41:00;15.50;48.60
67196;DHT22;54122;53.538;49.366;2023-03-24T11:43:30;15.50;48.60
67196;DHT22;54122;53.538;49.366;2023-03-24T11:51:11;15.80;48.10
67196;DHT22;54122;53.538;49.366;2023-03-24T11:53:45;15.80;47.60
67196;DHT22;54122;53.538;49.366;2023-03-24T11:59:24;15.60;48.00
67196;DHT22;54122;53.538;49.366;2023-03-24T12:07:38;15.40;48.50
67196;DHT22;54122;53.538;49.366;2023-03-24T12:10:22;15.30;48.70
67196;DHT22;54122;53.538;49.366;2023-03-24T12:23:58;15.30;48.70
67196;DHT22;54122;53.538;49.366;2023-03-24T12:26:30;15.30;48.60
67196;DHT22;54122;53.538;49.366;2023-03-24T12:34:55;15.20;48.90
67196;DHT22;54122;53.538;49.366;2023-03-24T12:45:53;15.00;48.40
67196;DHT22;54122;53.538;49.366;2023-03-24T12:57:00;14.90;49.20
67196;DHT22;54122;53.538;49.366;2023-03-24T12:59:48;14.80;49.20
67196;DHT22;54122;53.538;49.366;2023-03-24T13:04:53;14.80;49.40
67196;DHT22;54122;53.538;49.366;2023-03-24T13:07:24;14.70;49.60
67196;DHT22;54122;53.538;49.366;2023-03-24T13:13:40;14.70;50.00
67196;DHT22;54122;53.538;49.366;2023-03-24T13:15:48;14.60;50.00
67196;DHT22;54122;53.538;49.366;2023-03-24T13:21:16;14.50;50.40
67196;DHT22;54122;53.538;49.366;2023-03-24T13:23:51;14.50;50.60
67196;DHT22;54122;53.538;49.366;2023-03-24T13:29:28;14.40;50.80
67196;DHT22;54122;53.538;49.366;2023-03-24T13:32:05;14.40;50.90
67196;DHT22;54122;53.538;49.366;2023-03-24T13:34:40;14.30;51.10
67196;DHT22;54122;53.538;49.366;2023-03-24T13:37:20;14.20;51.20
67196;DHT22;54122;53.538;49.366;2023-03-24T13:39:52;14.10;51.50
67196;DHT22;54122;53.538;49.366;2023-03-24T13:42:32;14.00;51.50
67196;DHT22;54122;53.538;49.366;2023-03-24T13:45:04;14.00;51.60
67196;DHT22;54122;53.538;49.366;2023-03-24T13:50:20;13.80;51.80
67196;DHT22;54122;53.538;49.366;2023-03-24T13:52:49;13.70;51.90
67196;DHT22;54122;53.538;49.366;2023-03-24T13:55:23;13.70;52.10
67196;DHT22;54122;53.538;49.366;2023-03-24T13:58:03;13.60;52.20
67196;DHT22;54122;53.538;49.366;2023-03-24T14:03:36;13.50;52.70
67196;DHT22;54122;53.538;49.366;2023-03-24T14:06:06;13.40;53.00
67196;DHT22;54122;53.538;49.366;2023-03-24T14:08:59;13.40;53.20
67196;DHT22;54122;53.538;49.366;2023-03-24T14:14:22;13.20;53.40
67196;DHT22;54122;53.538;49.366;2023-03-24T14:19:40;13.00;53.90
67196;DHT22;54122;53.538;49.366;2023-03-24T14:22:26;12.90;54.50
67196;DHT22;54122;53.538;49.366;2023-03-24T14:27:36;12.80;55.00
67196;DHT22;54122;53.538;49.366;2023-03-24T14:32:43;12.60;55.60
67196;DHT22;54122;53.538;49.366;2023-03-24T14:35:43;12.50;55.80
67196;DHT22;54122;53.538;49.366;2023-03-24T14:40:47;12.30;56.30
67196;DHT22;54122;53.538;49.366;2023-03-24T14:48:33;12.20;56.70
67196;DHT22;54122;53.538;49.366;2023-03-24T14:53:56;12.00;57.20
67196;DHT22;54122;53.538;49.366;2023-03-24T14:56:26;12.00;57.50
67196;DHT22;54122;53.538;49.366;2023-03-24T14:59:03;11.90;57.70
67196;DHT22;54122;53.538;49.366;2023-03-24T15:01:33;11.70;57.90
67196;DHT22;54122;53.538;49.366;2023-03-24T15:04:07;11.70;58.40
67196;DHT22;54122;53.538;49.366;2023-03-24T15:06:45;11.70;58.50
67196;DHT22;54122;53.538;49.366;2023-03-24T15:09:15;11.50;58.70
67196;DHT22;54122;53.538;49.366;2023-03-24T15:11:42;11.50;59.00
67196;DHT22;54122;53.538;49.366;2023-03-24T15:14:21;11.40;59.20
67196;DHT22;54122;53.538;49.366;2023-03-24T15:17:07;11.40;59.30
67196;DHT22;54122;53.538;49.366;2023-03-24T15:19:41;11.40;59.50
67196;DHT22;54122;53.538;49.366;2023-03-24T15:22:11;11.30;59.80
67196;DHT22;54122;53.538;49.366;2023-03-24T15:24:41;11.30;59.80
67196;DHT22;54122;53.538;49.366;2023-03-24T15:27:12;11.30;60.00
67196;DHT22;54122;53.538;49.366;2023-03-24T15:29:41;11.30;60.10
67196;DHT22;54122;53.538;49.366;2023-03-24T15:32:17;11.20;60.20
67196;DHT22;54122;53.538;49.366;2023-03-24T15:34:55;11.20;60.40
67196;DHT22;54122;53.538;49.366;2023-03-24T15:37:40;11.20;60.60
67196;DHT22;54122;53.538;49.366;2023-03-24T15:40:30;11.10;60.90
67196;DHT22;54122;53.538;49.366;2023-03-24T15:43:00;11.00;61.10
67196;DHT22;54122;53.538;49.366;2023-03-24T15:45:32;11.00;61.40
67196;DHT22;54122;53.538;49.366;2023-03-24T15:48:13;10.90;61.60
67196;DHT22;54122;53.538;49.366;2023-03-24T15:51:05;10.90;61.90
67196;DHT22;54122;53.538;49.366;2023-03-24T15:53:54;10.80;62.30
67196;DHT22;54122;53.538;49.366;2023-03-24T15:56:28;10.80;62.60
67196;DHT22;54122;53.538;49.366;2023-03-24T16:01:38;10.70;63.50
67196;DHT22;54122;53.538;49.366;2023-03-24T16:04:13;10.70;63.60
67196;DHT22;54122;53.538;49.366;2023-03-24T16:06:42;10.70;63.80
67196;DHT22;54122;53.538;49.366;2023-03-24T16:09:15;10.70;63.70
67196;DHT22;54122;53.538;49.366;2023-03-24T16:11:47;10.70;64.00
67196;DHT22;54122;53.538;49.366;2023-03-24T16:16:43;10.70;64.20
67196;DHT22;54122;53.538;49.366;2023-03-24T16:19:10;10.60;64.50
67196;DHT22;54122;53.538;49.366;2023-03-24T16:21:38;10.60;64.70
67196;DHT22;54122;53.538;49.366;2023-03-24T16:24:05;10.60;65.00
67196;DHT22;54122;53.538;49.366;2023-03-24T16:26:32;10.60;65.10
67196;DHT22;54122;53.538;49.366;2023-03-24T16:29:23;10.50;65.50
67196;DHT22;54122;53.538;49.366;2023-03-24T16:31:51;10.50;66.00
67196;DHT22;54122;53.538;49.366;2023-03-24T16:34:21;10.50;66.20
67196;DHT22;54122;53.538;49.366;2023-03-24T16:36:51;10.50;66.50
67196;DHT22;54122;53.538;49.366;2023-03-24T16:39:27;10.50;66.60
67196;DHT22;54122;53.538;49.366;2023-03-24T16:41:55;10.60;66.60
67196;DHT22;54122;53.538;49.366;2023-03-24T16:44:22;10.70;66.60
67196;DHT22;54122;53.538;49.366;2023-03-24T16:46:51;10.70;66.30
67196;DHT22;54122;53.538;49.366;2023-03-24T16:49:21;10.80;66.20
67196;DHT22;54122;53.538;49.366;2023-03-24T16:51:52;10.80;66.10
67196;DHT22;54122;53.538;49.366;2023-03-24T16:54:19;10.90;66.30
67196;DHT22;54122;53.538;49.366;2023-03-24T16:56:47;11.00;65.90
67196;DHT22;54122;53.538;49.366;2023-03-24T16:59:13;11.10;65.80
67196;DHT22;54122;53.538;49.366;2023-03-24T17:01:43;11.10;65.60
67196;DHT22;54122;53.538;49.366;2023-03-24T17:06:40;11.20;65.50
67196;DHT22;54122;53.538;49.366;2023-03-24T17:09:07;11.30;65.50
67196;DHT22;54122;53.538;49.366;2023-03-24T17:11:37;11.30;65.50
67196;DHT22;54122;53.538;49.366;2023-03-24T17:14:05;11.30;65.40
67196;DHT22;54122;53.538;49.366;2023-03-24T17:16:35;11.30;65.30
67196;DHT22;54122;53.538;49.366;2023-03-24T17:19:05;11.30;65.30
67196;DHT22;54122;53.538;49.366;2023-03-24T17:21:39;11.40;65.30
67196;DHT22;54122;53.538;49.366;2023-03-24T17:24:07;11.40;65.10
67196;DHT22;54122;53.538;49.366;2023-03-24T17:26:36;11.40;66.10
67196;DHT22;54122;53.538;49.366;2023-03-24T17:29:03;11.40;65.20
67196;DHT22;54122;53.538;49.366;2023-03-24T17:31:32;11.50;65.20
67196;DHT22;54122;53.538;49.366;2023-03-24T17:33:58;11.50;65.10
67196;DHT22;54122;53.538;49.366;2023-03-24T17:36:25;11.50;65.00
67196;DHT22;54122;53.538;49.366;2023-03-24T17:38:53;11.40;65.10
67196;DHT22;54122;53.538;49.366;2023-03-24T17:41:20;11.50;65.10
67196;DHT22;54122;53.538;49.366;2023-03-24T17:43:47;11.50;65.20
67196;DHT22;54122;53.538;49.366;2023-03-24T17:46:14;11.50;65.20
67196;DHT22;54122;53.538;49.366;2023-03-24T17:48:41;11.40;65.10
67196;DHT22;54122;53.538;49.366;2023-03-24T17:51:09;11.40;65.20
67196;DHT22;54122;53.538;49.366;2023-03-24T17:53:37;11.50;65.30
67196;DHT22;54122;53.538;49.366;2023-03-24T17:56:04;11.40;65.30
67196;DHT22;54122;53.538;49.366;2023-03-24T17:58:34;11.40;65.40
67196;DHT22;54122;53.538;49.366;2023-03-24T18:01:03;11.40;65.50
67196;DHT22;54122;53.538;49.366;2023-03-24T18:03:33;11.40;65.60
67196;DHT22;54122;53.538;49.366;2023-03-24T18:06:06;11.30;65.70
67196;DHT22;54122;53.538;49.366;2023-03-24T18:08:33;11.20;65.90
67196;DHT22;54122;53.538;49.366;2023-03-24T18:11:08;11.20;66.00
67196;DHT22;54122;53.538;49.366;2023-03-24T18:13:36;11.10;67.30
67196;DHT22;54122;53.538;49.366;2023-03-24T18:16:04;11.10;66.50
67196;DHT22;54122;53.538;49.366;2023-03-24T18:18:32;11.00;66.70
67196;DHT22;54122;53.538;49.366;2023-03-24T18:21:01;10.90;67.00
67196;DHT22;54122;53.538;49.366;2023-03-24T18:23:27;10.90;67.40
67196;DHT22;54122;53.538;49.366;2023-03-24T18:25:59;10.70;67.70
67196;DHT22;54122;53.538;49.366;2023-03-24T18:28:27;10.60;68.10